sensor_id;sensor_type;location;lat;lon;timestamp;P1;durP1;ratioP1;P2;durP2;ratioP2
32333;SDS011;18810;53.040;8.850;2022-12-07T00:01:07;32.95;;;16.80;;
32333;SDS011;18810;53.040;8.850;2022-12-07T00:03:33;32.58;;;16.75;;
32333;SDS011;18810;53.040;8.850;2022-12-07T00:06:00;32.00;;;17.13;;
32333;SDS011;18810;53.040;8.850;2022-12-07T00:08:28;27.80;;;14.82;;
32333;SDS011;18810;53.040;8.850;2022-12-07T00:10:55;28.50;;;15.57;;
32333;SDS011;18810;53.040;8.850;2022-12-07T00:15:51;28.83;;;14.80;;
32333;SDS011;18810;53.040;8.850;2022-12-07T00:18:16;26.27;;;14.70;;
32333;SDS011;18810;53.040;8.850;2022-12-07T00:20:42;28.23;;;13.77;;
32333;SDS011;18810;53.040;8.850;2022-12-07T00:23:08;25.27;;;14.05;;
32333;SDS011;18810;53.040;8.850;2022-12-07T00:25:33;27.58;;;14.30;;
32333;SDS011;18810;53.040;8.850;2022-12-07T00:27:59;27.65;;;13.45;;
32333;SDS011;18810;53.040;8.850;2022-12-07T00:30:25;28.48;;;14.13;;
32333;SDS011;18810;53.040;8.850;2022-12-07T00:32:50;25.90;;;13.25;;
32333;SDS011;18810;53.040;8.850;2022-12-07T00:35:16;28.50;;;13.90;;
32333;SDS011;18810;53.040;8.850;2022-12-07T00:37:42;23.60;;;13.20;;
32333;SDS011;18810;53.040;8.850;2022-12-07T00:40:08;24.95;;;12.52;;
32333;SDS011;18810;53.040;8.850;2022-12-07T00:42:34;25.67;;;11.95;;
32333;SDS011;18810;53.040;8.850;2022-12-07T00:44:59;25.92;;;13.70;;
32333;SDS011;18810;53.040;8.850;2022-12-07T00:47:25;27.42;;;13.52;;
32333;SDS011;18810;53.040;8.850;2022-12-07T00:49:51;28.05;;;12.93;;
32333;SDS011;18810;53.040;8.850;2022-12-07T00:52:16;28.42;;;14.27;;
32333;SDS011;18810;53.040;8.850;2022-12-07T00:54:42;26.83;;;13.30;;
32333;SDS011;18810;53.040;8.850;2022-12-07T00:57:14;28.30;;;13.35;;
32333;SDS011;18810;53.040;8.850;2022-12-07T00:59:40;25.45;;;12.82;;
32333;SDS011;18810;53.040;8.850;2022-12-07T01:02:05;27.15;;;12.38;;
32333;SDS011;18810;53.040;8.850;2022-12-07T01:04:33;26.80;;;13.07;;
32333;SDS011;18810;53.040;8.850;2022-12-07T01:06:59;26.80;;;13.07;;
32333;SDS011;18810;53.040;8.850;2022-12-07T01:09:25;26.95;;;12.77;;
32333;SDS011;18810;53.040;8.850;2022-12-07T01:11:50;22.27;;;11.15;;
32333;SDS011;18810;53.040;8.850;2022-12-07T01:14:16;24.48;;;11.73;;
32333;SDS011;18810;53.040;8.850;2022-12-07T01:16:42;22.05;;;11.88;;
32333;SDS011;18810;53.040;8.850;2022-12-07T01:19:07;28.55;;;12.63;;
32333;SDS011;18810;53.040;8.850;2022-12-07T01:21:34;24.25;;;11.63;;
32333;SDS011;18810;53.040;8.850;2022-12-07T01:24:01;22.83;;;10.60;;
32333;SDS011;18810;53.040;8.850;2022-12-07T01:26:27;24.23;;;11.18;;
32333;SDS011;18810;53.040;8.850;2022-12-07T01:28:53;23.13;;;11.10;;
32333;SDS011;18810;53.040;8.850;2022-12-07T01:31:20;22.77;;;10.32;;
32333;SDS011;18810;53.040;8.850;2022-12-07T01:33:49;28.58;;;10.43;;
32333;SDS011;18810;53.040;8.850;2022-12-07T01:36:50;19.80;;;9.95;;
32333;SDS011;18810;53.040;8.850;2022-12-07T01:39:09;23.65;;;9.15;;
32333;SDS011;18810;53.040;8.850;2022-12-07T01:41:36;19.90;;;9.40;;
32333;SDS011;18810;53.040;8.850;2022-12-07T01:46:37;18.70;;;8.73;;
32333;SDS011;18810;53.040;8.850;2022-12-07T01:49:04;16.13;;;8.63;;
32333;SDS011;18810;53.040;8.850;2022-12-07T01:51:33;20.55;;;8.85;;
32333;SDS011;18810;53.040;8.850;2022-12-07T01:54:05;20.70;;;7.88;;
32333;SDS011;18810;53.040;8.850;2022-12-07T01:56:31;17.95;;;7.38;;
32333;SDS011;18810;53.040;8.850;2022-12-07T01:58:57;15.93;;;7.28;;
32333;SDS011;18810;53.040;8.850;2022-12-07T02:01:25;15.15;;;6.53;;
32333;SDS011;18810;53.040;8.850;2022-12-07T02:03:51;12.00;;;5.80;;
32333;SDS011;18810;53.040;8.850;2022-12-07T02:06:19;18.40;;;6.13;;
32333;SDS011;18810;53.040;8.850;2022-12-07T02:08:48;16.02;;;6.75;;
32333;SDS011;18810;53.040;8.850;2022-12-07T02:11:14;12.70;;;5.70;;
32333;SDS011;18810;53.040;8.850;2022-12-07T02:13:41;9.82;;;6.38;;
32333;SDS011;18810;53.040;8.850;2022-12-07T02:27:37;18.17;;;7.30;;
32333;SDS011;18810;53.040;8.850;2022-12-07T02:30:20;18.20;;;7.90;;
32333;SDS011;18810;53.040;8.850;2022-12-07T02:33:22;17.90;;;7.53;;
32333;SDS011;18810;53.040;8.850;2022-12-07T02:44:04;18.50;;;8.30;;
32333;SDS011;18810;53.040;8.850;2022-12-07T02:46:28;18.05;;;8.48;;
32333;SDS011;18810;53.040;8.850;2022-12-07T02:48:57;20.08;;;8.90;;
32333;SDS011;18810;53.040;8.850;2022-12-07T02:51:29;21.60;;;9.18;;
32333;SDS011;18810;53.040;8.850;2022-12-07T02:53:55;25.63;;;9.18;;
32333;SDS011;18810;53.040;8.850;2022-12-07T02:59:05;24.00;;;9.55;;
32333;SDS011;18810;53.040;8.850;2022-12-07T03:18:47;13.95;;;6.60;;
32333;SDS011;18810;53.040;8.850;2022-12-07T03:21:21;10.77;;;5.55;;
32333;SDS011;18810;53.040;8.850;2022-12-07T03:23:53;14.77;;;5.63;;
32333;SDS011;18810;53.040;8.850;2022-12-07T03:26:21;11.45;;;5.32;;
32333;SDS011;18810;53.040;8.850;2022-12-07T03:28:55;11.20;;;4.43;;
32333;SDS011;18810;53.040;8.850;2022-12-07T03:31:26;8.23;;;3.60;;
32333;SDS011;18810;53.040;8.850;2022-12-07T03:39:35;6.88;;;3.40;;
32333;SDS011;18810;53.040;8.850;2022-12-07T03:42:01;8.00;;;2.85;;
32333;SDS011;18810;53.040;8.850;2022-12-07T03:44:30;5.65;;;2.60;;
32333;SDS011;18810;53.040;8.850;2022-12-07T03:54:47;11.02;;;3.15;;
32333;SDS011;18810;53.040;8.850;2022-12-07T03:57:22;10.13;;;3.60;;
32333;SDS011;18810;53.040;8.850;2022-12-07T03:59:50;12.43;;;3.72;;
32333;SDS011;18810;53.040;8.850;2022-12-07T04:02:16;11.65;;;5.00;;
32333;SDS011;18810;53.040;8.850;2022-12-07T04:04:43;14.32;;;6.15;;
32333;SDS011;18810;53.040;8.850;2022-12-07T04:07:09;17.33;;;6.30;;
32333;SDS011;18810;53.040;8.850;2022-12-07T04:09:35;15.30;;;7.22;;
32333;SDS011;18810;53.040;8.850;2022-12-07T04:12:01;18.25;;;7.57;;
32333;SDS011;18810;53.040;8.850;2022-12-07T04:14:27;18.40;;;7.63;;
32333;SDS011;18810;53.040;8.850;2022-12-07T04:16:54;18.75;;;8.68;;
32333;SDS011;18810;53.040;8.850;2022-12-07T04:19:25;18.20;;;7.70;;
32333;SDS011;18810;53.040;8.850;2022-12-07T04:21:56;21.25;;;8.77;;
32333;SDS011;18810;53.040;8.850;2022-12-07T04:24:23;25.70;;;8.85;;
32333;SDS011;18810;53.040;8.850;2022-12-07T04:26:49;17.98;;;8.88;;
32333;SDS011;18810;53.040;8.850;2022-12-07T04:29:15;20.58;;;8.75;;
32333;SDS011;18810;53.040;8.850;2022-12-07T04:31:41;17.35;;;9.20;;
32333;SDS011;18810;53.040;8.850;2022-12-07T04:34:07;24.02;;;9.98;;
32333;SDS011;18810;53.040;8.850;2022-12-07T04:36:33;17.48;;;8.82;;
32333;SDS011;18810;53.040;8.850;2022-12-07T04:39:00;22.80;;;10.27;;
32333;SDS011;18810;53.040;8.850;2022-12-07T04:41:26;20.33;;;9.77;;
32333;SDS011;18810;53.040;8.850;2022-12-07T04:43:56;26.90;;;10.85;;
32333;SDS011;18810;53.040;8.850;2022-12-07T04:46:23;23.75;;;9.93;;
32333;SDS011;18810;53.040;8.850;2022-12-07T04:48:50;19.60;;;10.73;;
32333;SDS011;18810;53.040;8.850;2022-12-07T04:51:18;20.10;;;9.95;;
32333;SDS011;18810;53.040;8.850;2022-12-07T04:53:47;21.25;;;9.93;;
32333;SDS011;18810;53.040;8.850;2022-12-07T04:56:13;23.58;;;9.55;;
32333;SDS011;18810;53.040;8.850;2022-12-07T04:58:40;21.83;;;9.23;;
32333;SDS011;18810;53.040;8.850;2022-12-07T05:01:06;20.98;;;9.48;;
32333;SDS011;18810;53.040;8.850;2022-12-07T05:03:32;21.92;;;9.55;;
32333;SDS011;18810;53.040;8.850;2022-12-07T05:05:57;20.63;;;9.30;;
32333;SDS011;18810;53.040;8.850;2022-12-07T05:08:23;14.35;;;8.10;;
32333;SDS011;18810;53.040;8.850;2022-12-07T05:10:49;17.10;;;8.70;;
32333;SDS011;18810;53.040;8.850;2022-12-07T05:13:15;18.35;;;8.95;;
32333;SDS011;18810;53.040;8.850;2022-12-07T05:15:41;21.40;;;8.45;;
32333;SDS011;18810;53.040;8.850;2022-12-07T05:18:09;22.88;;;7.85;;
32333;SDS011;18810;53.040;8.850;2022-12-07T05:20:37;15.32;;;8.27;;
32333;SDS011;18810;53.040;8.850;2022-12-07T05:23:03;14.02;;;7.63;;
32333;SDS011;18810;53.040;8.850;2022-12-07T05:25:29;15.45;;;8.95;;
32333;SDS011;18810;53.040;8.850;2022-12-07T05:27:55;17.45;;;7.72;;
32333;SDS011;18810;53.040;8.850;2022-12-07T05:30:22;13.00;;;7.28;;
32333;SDS011;18810;53.040;8.850;2022-12-07T05:32:48;20.67;;;7.63;;
32333;SDS011;18810;53.040;8.850;2022-12-07T05:35:14;16.45;;;6.85;;
32333;SDS011;18810;53.040;8.850;2022-12-07T05:37:40;18.70;;;6.68;;
32333;SDS011;18810;53.040;8.850;2022-12-07T05:40:06;16.70;;;6.15;;
32333;SDS011;18810;53.040;8.850;2022-12-07T05:42:32;11.77;;;6.00;;
32333;SDS011;18810;53.040;8.850;2022-12-07T05:44:58;10.32;;;5.53;;
32333;SDS011;18810;53.040;8.850;2022-12-07T05:47:23;11.73;;;5.05;;
32333;SDS011;18810;53.040;8.850;2022-12-07T05:49:49;10.05;;;5.68;;
32333;SDS011;18810;53.040;8.850;2022-12-07T05:52:15;14.25;;;6.07;;
32333;SDS011;18810;53.040;8.850;2022-12-07T05:54:40;10.13;;;5.03;;
32333;SDS011;18810;53.040;8.850;2022-12-07T05:57:06;12.80;;;4.68;;
32333;SDS011;18810;53.040;8.850;2022-12-07T05:59:32;10.73;;;4.50;;
32333;SDS011;18810;53.040;8.850;2022-12-07T06:01:59;13.05;;;5.20;;
32333;SDS011;18810;53.040;8.850;2022-12-07T06:04:28;10.95;;;4.57;;
32333;SDS011;18810;53.040;8.850;2022-12-07T06:06:55;14.35;;;4.82;;
32333;SDS011;18810;53.040;8.850;2022-12-07T06:09:24;10.75;;;4.97;;
32333;SDS011;18810;53.040;8.850;2022-12-07T06:11:51;12.40;;;4.70;;
32333;SDS011;18810;53.040;8.850;2022-12-07T06:14:35;13.27;;;4.50;;
32333;SDS011;18810;53.040;8.850;2022-12-07T06:17:01;9.80;;;5.20;;
32333;SDS011;18810;53.040;8.850;2022-12-07T06:19:27;13.32;;;5.35;;
32333;SDS011;18810;53.040;8.850;2022-12-07T06:21:53;12.55;;;4.93;;
32333;SDS011;18810;53.040;8.850;2022-12-07T06:24:18;13.07;;;4.65;;
32333;SDS011;18810;53.040;8.850;2022-12-07T06:26:44;15.95;;;5.00;;
32333;SDS011;18810;53.040;8.850;2022-12-07T06:29:11;11.15;;;4.90;;
32333;SDS011;18810;53.040;8.850;2022-12-07T06:31:37;7.35;;;4.55;;
32333;SDS011;18810;53.040;8.850;2022-12-07T06:34:05;13.77;;;4.22;;
32333;SDS011;18810;53.040;8.850;2022-12-07T06:36:35;13.52;;;7.07;;
32333;SDS011;18810;53.040;8.850;2022-12-07T06:39:01;13.13;;;4.20;;
32333;SDS011;18810;53.040;8.850;2022-12-07T06:41:27;13.80;;;5.22;;
32333;SDS011;18810;53.040;8.850;2022-12-07T06:43:53;11.63;;;4.55;;
32333;SDS011;18810;53.040;8.850;2022-12-07T06:46:18;10.63;;;4.20;;
32333;SDS011;18810;53.040;8.850;2022-12-07T06:48:45;12.00;;;4.18;;
32333;SDS011;18810;53.040;8.850;2022-12-07T06:51:10;15.70;;;4.10;;
32333;SDS011;18810;53.040;8.850;2022-12-07T06:53:36;10.43;;;4.15;;
32333;SDS011;18810;53.040;8.850;2022-12-07T06:56:03;10.45;;;3.50;;
32333;SDS011;18810;53.040;8.850;2022-12-07T06:58:29;10.32;;;3.70;;
32333;SDS011;18810;53.040;8.850;2022-12-07T07:00:55;12.13;;;4.18;;
32333;SDS011;18810;53.040;8.850;2022-12-07T07:03:20;15.60;;;4.10;;
32333;SDS011;18810;53.040;8.850;2022-12-07T07:05:46;15.27;;;3.60;;
32333;SDS011;18810;53.040;8.850;2022-12-07T07:08:13;7.75;;;3.50;;
32333;SDS011;18810;53.040;8.850;2022-12-07T07:10:39;9.73;;;3.72;;
32333;SDS011;18810;53.040;8.850;2022-12-07T07:13:05;12.77;;;4.13;;
32333;SDS011;18810;53.040;8.850;2022-12-07T07:15:31;9.10;;;3.63;;
32333;SDS011;18810;53.040;8.850;2022-12-07T07:17:57;12.95;;;4.05;;
32333;SDS011;18810;53.040;8.850;2022-12-07T07:20:23;11.32;;;4.00;;
32333;SDS011;18810;53.040;8.850;2022-12-07T07:22:49;12.93;;;3.83;;
32333;SDS011;18810;53.040;8.850;2022-12-07T07:25:15;6.65;;;3.17;;
32333;SDS011;18810;53.040;8.850;2022-12-07T07:27:41;13.30;;;4.53;;
32333;SDS011;18810;53.040;8.850;2022-12-07T07:30:07;9.43;;;3.60;;
32333;SDS011;18810;53.040;8.850;2022-12-07T07:32:33;10.65;;;4.35;;
32333;SDS011;18810;53.040;8.850;2022-12-07T07:34:59;17.30;;;4.22;;
32333;SDS011;18810;53.040;8.850;2022-12-07T07:37:25;6.20;;;3.13;;
32333;SDS011;18810;53.040;8.850;2022-12-07T07:39:54;11.05;;;3.88;;
32333;SDS011;18810;53.040;8.850;2022-12-07T07:42:19;11.00;;;3.55;;
32333;SDS011;18810;53.040;8.850;2022-12-07T07:44:46;11.00;;;3.55;;
32333;SDS011;18810;53.040;8.850;2022-12-07T07:47:12;16.02;;;4.60;;
32333;SDS011;18810;53.040;8.850;2022-12-07T07:49:38;12.38;;;3.80;;
32333;SDS011;18810;53.040;8.850;2022-12-07T07:52:04;12.40;;;3.83;;
32333;SDS011;18810;53.040;8.850;2022-12-07T07:54:31;13.00;;;3.90;;
32333;SDS011;18810;53.040;8.850;2022-12-07T07:56:57;8.38;;;3.80;;
32333;SDS011;18810;53.040;8.850;2022-12-07T07:59:22;8.40;;;3.90;;
32333;SDS011;18810;53.040;8.850;2022-12-07T08:01:49;14.75;;;3.85;;
32333;SDS011;18810;53.040;8.850;2022-12-07T08:04:15;12.25;;;3.92;;
32333;SDS011;18810;53.040;8.850;2022-12-07T08:06:41;7.28;;;3.50;;
32333;SDS011;18810;53.040;8.850;2022-12-07T08:09:07;8.70;;;4.18;;
32333;SDS011;18810;53.040;8.850;2022-12-07T08:11:33;7.75;;;3.60;;
32333;SDS011;18810;53.040;8.850;2022-12-07T08:13:59;7.07;;;3.60;;
32333;SDS011;18810;53.040;8.850;2022-12-07T08:16:25;7.93;;;3.20;;
32333;SDS011;18810;53.040;8.850;2022-12-07T08:18:51;12.07;;;3.92;;
32333;SDS011;18810;53.040;8.850;2022-12-07T08:21:17;9.30;;;3.25;;
32333;SDS011;18810;53.040;8.850;2022-12-07T08:23:42;8.52;;;3.58;;
32333;SDS011;18810;53.040;8.850;2022-12-07T08:26:09;6.18;;;3.33;;
32333;SDS011;18810;53.040;8.850;2022-12-07T08:28:36;8.40;;;3.30;;
32333;SDS011;18810;53.040;8.850;2022-12-07T08:31:06;9.13;;;4.32;;
32333;SDS011;18810;53.040;8.850;2022-12-07T08:33:35;8.50;;;3.63;;
32333;SDS011;18810;53.040;8.850;2022-12-07T08:36:02;11.57;;;3.70;;
32333;SDS011;18810;53.040;8.850;2022-12-07T08:38:29;8.40;;;3.45;;
32333;SDS011;18810;53.040;8.850;2022-12-07T08:40:56;7.30;;;3.25;;
32333;SDS011;18810;53.040;8.850;2022-12-07T08:43:22;7.32;;;2.95;;
32333;SDS011;18810;53.040;8.850;2022-12-07T08:45:49;11.10;;;3.67;;
32333;SDS011;18810;53.040;8.850;2022-12-07T08:48:41;5.22;;;2.90;;
32333;SDS011;18810;53.040;8.850;2022-12-07T08:51:13;5.43;;;2.90;;
32333;SDS011;18810;53.040;8.850;2022-12-07T08:53:39;5.60;;;2.40;;
32333;SDS011;18810;53.040;8.850;2022-12-07T08:56:05;6.50;;;2.80;;
32333;SDS011;18810;53.040;8.850;2022-12-07T08:58:33;4.78;;;2.53;;
32333;SDS011;18810;53.040;8.850;2022-12-07T09:01:00;4.70;;;2.40;;
32333;SDS011;18810;53.040;8.850;2022-12-07T09:03:25;12.10;;;2.40;;
32333;SDS011;18810;53.040;8.850;2022-12-07T09:05:52;3.78;;;1.95;;
32333;SDS011;18810;53.040;8.850;2022-12-07T09:08:18;10.88;;;2.05;;
32333;SDS011;18810;53.040;8.850;2022-12-07T09:10:45;4.80;;;1.70;;
32333;SDS011;18810;53.040;8.850;2022-12-07T09:13:11;5.70;;;2.10;;
32333;SDS011;18810;53.040;8.850;2022-12-07T09:15:37;5.03;;;2.38;;
32333;SDS011;18810;53.040;8.850;2022-12-07T09:18:02;7.30;;;2.67;;
32333;SDS011;18810;53.040;8.850;2022-12-07T09:20:28;4.28;;;2.22;;
32333;SDS011;18810;53.040;8.850;2022-12-07T09:22:54;6.93;;;2.75;;
32333;SDS011;18810;53.040;8.850;2022-12-07T09:25:19;9.02;;;2.42;;
32333;SDS011;18810;53.040;8.850;2022-12-07T09:27:45;5.18;;;2.80;;
32333;SDS011;18810;53.040;8.850;2022-12-07T09:30:11;4.63;;;2.50;;
32333;SDS011;18810;53.040;8.850;2022-12-07T09:32:37;6.95;;;2.38;;
32333;SDS011;18810;53.040;8.850;2022-12-07T09:35:03;6.30;;;2.35;;
32333;SDS011;18810;53.040;8.850;2022-12-07T09:37:29;4.78;;;2.60;;
32333;SDS011;18810;53.040;8.850;2022-12-07T09:39:56;7.47;;;2.75;;
32333;SDS011;18810;53.040;8.850;2022-12-07T09:42:29;7.47;;;2.90;;
32333;SDS011;18810;53.040;8.850;2022-12-07T09:45:05;7.88;;;2.95;;
32333;SDS011;18810;53.040;8.850;2022-12-07T09:47:37;7.57;;;3.33;;
32333;SDS011;18810;53.040;8.850;2022-12-07T09:50:04;8.85;;;3.40;;
32333;SDS011;18810;53.040;8.850;2022-12-07T09:52:45;5.03;;;3.00;;
32333;SDS011;18810;53.040;8.850;2022-12-07T09:55:14;8.73;;;3.30;;
32333;SDS011;18810;53.040;8.850;2022-12-07T09:57:44;5.28;;;2.70;;
32333;SDS011;18810;53.040;8.850;2022-12-07T10:00:14;7.75;;;3.03;;
32333;SDS011;18810;53.040;8.850;2022-12-07T10:03:03;9.30;;;3.50;;
32333;SDS011;18810;53.040;8.850;2022-12-07T10:05:36;8.05;;;3.05;;
32333;SDS011;18810;53.040;8.850;2022-12-07T10:08:13;5.20;;;2.97;;
32333;SDS011;18810;53.040;8.850;2022-12-07T10:10:40;6.45;;;3.65;;
32333;SDS011;18810;53.040;8.850;2022-12-07T10:13:08;5.38;;;3.42;;
32333;SDS011;18810;53.040;8.850;2022-12-07T10:20:59;8.68;;;3.22;;
32333;SDS011;18810;53.040;8.850;2022-12-07T10:23:32;6.95;;;2.92;;
32333;SDS011;18810;53.040;8.850;2022-12-07T10:25:59;8.00;;;3.67;;
32333;SDS011;18810;53.040;8.850;2022-12-07T10:28:27;6.22;;;2.60;;
32333;SDS011;18810;53.040;8.850;2022-12-07T10:31:01;4.97;;;2.50;;
32333;SDS011;18810;53.040;8.850;2022-12-07T10:36:23;9.18;;;2.58;;
32333;SDS011;18810;53.040;8.850;2022-12-07T10:38:58;6.82;;;3.47;;
32333;SDS011;18810;53.040;8.850;2022-12-07T10:41:26;8.38;;;3.00;;
32333;SDS011;18810;53.040;8.850;2022-12-07T10:43:53;7.90;;;3.00;;
32333;SDS011;18810;53.040;8.850;2022-12-07T10:46:30;8.65;;;2.80;;
32333;SDS011;18810;53.040;8.850;2022-12-07T10:55:24;5.63;;;3.10;;
32333;SDS011;18810;53.040;8.850;2022-12-07T11:06:15;9.65;;;2.75;;
32333;SDS011;18810;53.040;8.850;2022-12-07T11:11:59;9.13;;;2.65;;
32333;SDS011;18810;53.040;8.850;2022-12-07T11:17:28;9.57;;;3.17;;
32333;SDS011;18810;53.040;8.850;2022-12-07T11:23:00;7.28;;;2.60;;
32333;SDS011;18810;53.040;8.850;2022-12-07T11:25:48;5.00;;;2.53;;
32333;SDS011;18810;53.040;8.850;2022-12-07T11:31:29;7.57;;;2.20;;
32333;SDS011;18810;53.040;8.850;2022-12-07T11:33:59;6.60;;;2.30;;
32333;SDS011;18810;53.040;8.850;2022-12-07T11:36:49;5.78;;;2.40;;
32333;SDS011;18810;53.040;8.850;2022-12-07T11:41:52;4.47;;;2.30;;
32333;SDS011;18810;53.040;8.850;2022-12-07T11:44:27;8.00;;;2.20;;
32333;SDS011;18810;53.040;8.850;2022-12-07T11:47:10;7.90;;;1.92;;
32333;SDS011;18810;53.040;8.850;2022-12-07T11:52:51;7.15;;;2.40;;
32333;SDS011;18810;53.040;8.850;2022-12-07T11:55:41;6.05;;;2.40;;
32333;SDS011;18810;53.040;8.850;2022-12-07T11:58:37;9.85;;;2.20;;
32333;SDS011;18810;53.040;8.850;2022-12-07T12:03:45;7.72;;;2.65;;
32333;SDS011;18810;53.040;8.850;2022-12-07T12:06:13;10.85;;;2.90;;
32333;SDS011;18810;53.040;8.850;2022-12-07T12:08:41;9.45;;;2.47;;
32333;SDS011;18810;53.040;8.850;2022-12-07T12:22:01;7.55;;;1.90;;
32333;SDS011;18810;53.040;8.850;2022-12-07T12:24:44;9.27;;;2.30;;
32333;SDS011;18810;53.040;8.850;2022-12-07T12:29:52;8.43;;;2.25;;
32333;SDS011;18810;53.040;8.850;2022-12-07T12:32:21;10.02;;;2.22;;
32333;SDS011;18810;53.040;8.850;2022-12-07T12:35:02;6.63;;;2.00;;
32333;SDS011;18810;53.040;8.850;2022-12-07T12:37:46;9.57;;;2.47;;
32333;SDS011;18810;53.040;8.850;2022-12-07T12:55:50;8.25;;;2.33;;
32333;SDS011;18810;53.040;8.850;2022-12-07T12:58:31;14.00;;;2.60;;
32333;SDS011;18810;53.040;8.850;2022-12-07T13:03:56;7.35;;;2.97;;
32333;SDS011;18810;53.040;8.850;2022-12-07T13:08:52;3.78;;;2.28;;
32333;SDS011;18810;53.040;8.850;2022-12-07T13:11:32;3.70;;;2.55;;
32333;SDS011;18810;53.040;8.850;2022-12-07T13:17:09;6.45;;;2.67;;
32333;SDS011;18810;53.040;8.850;2022-12-07T13:24:55;6.45;;;2.83;;
32333;SDS011;18810;53.040;8.850;2022-12-07T13:27:24;9.23;;;2.92;;
32333;SDS011;18810;53.040;8.850;2022-12-07T13:29:53;8.57;;;3.15;;
32333;SDS011;18810;53.040;8.850;2022-12-07T13:32:23;7.28;;;3.00;;
32333;SDS011;18810;53.040;8.850;2022-12-07T13:34:51;6.47;;;2.60;;
32333;SDS011;18810;53.040;8.850;2022-12-07T13:39:46;8.80;;;3.50;;
32333;SDS011;18810;53.040;8.850;2022-12-07T13:42:26;7.68;;;2.75;;
32333;SDS011;18810;53.040;8.850;2022-12-07T13:44:54;9.52;;;3.20;;
32333;SDS011;18810;53.040;8.850;2022-12-07T13:50:02;9.82;;;3.25;;
32333;SDS011;18810;53.040;8.850;2022-12-07T13:53:00;7.50;;;3.00;;
32333;SDS011;18810;53.040;8.850;2022-12-07T13:55:27;7.18;;;2.83;;
32333;SDS011;18810;53.040;8.850;2022-12-07T13:57:54;8.23;;;2.70;;
32333;SDS011;18810;53.040;8.850;2022-12-07T14:00:27;7.47;;;2.90;;
32333;SDS011;18810;53.040;8.850;2022-12-07T14:10:23;9.77;;;2.95;;
32333;SDS011;18810;53.040;8.850;2022-12-07T14:12:51;7.88;;;2.53;;
32333;SDS011;18810;53.040;8.850;2022-12-07T14:15:21;8.77;;;2.47;;
32333;SDS011;18810;53.040;8.850;2022-12-07T14:17:49;10.10;;;2.15;;
32333;SDS011;18810;53.040;8.850;2022-12-07T14:23:03;4.20;;;2.10;;
32333;SDS011;18810;53.040;8.850;2022-12-07T14:25:48;5.05;;;2.30;;
32333;SDS011;18810;53.040;8.850;2022-12-07T14:28:25;8.60;;;2.60;;
32333;SDS011;18810;53.040;8.850;2022-12-07T14:30:53;7.97;;;2.67;;
32333;SDS011;18810;53.040;8.850;2022-12-07T14:33:18;7.38;;;2.50;;
32333;SDS011;18810;53.040;8.850;2022-12-07T14:35:45;4.03;;;2.25;;
32333;SDS011;18810;53.040;8.850;2022-12-07T14:38:11;3.17;;;1.58;;
32333;SDS011;18810;53.040;8.850;2022-12-07T14:40:37;6.10;;;1.85;;
32333;SDS011;18810;53.040;8.850;2022-12-07T14:43:11;3.35;;;1.75;;
32333;SDS011;18810;53.040;8.850;2022-12-07T14:45:39;6.65;;;2.40;;
32333;SDS011;18810;53.040;8.850;2022-12-07T14:48:05;7.30;;;2.40;;
32333;SDS011;18810;53.040;8.850;2022-12-07T14:50:37;6.75;;;2.65;;
32333;SDS011;18810;53.040;8.850;2022-12-07T14:53:13;7.20;;;2.35;;
32333;SDS011;18810;53.040;8.850;2022-12-07T14:55:43;5.90;;;2.25;;
32333;SDS011;18810;53.040;8.850;2022-12-07T14:58:16;8.23;;;2.22;;
32333;SDS011;18810;53.040;8.850;2022-12-07T15:00:42;5.47;;;2.22;;
32333;SDS011;18810;53.040;8.850;2022-12-07T15:03:08;10.40;;;1.90;;
32333;SDS011;18810;53.040;8.850;2022-12-07T15:05:34;5.68;;;2.25;;
32333;SDS011;18810;53.040;8.850;2022-12-07T15:08:01;5.90;;;2.35;;
32333;SDS011;18810;53.040;8.850;2022-12-07T15:10:28;3.00;;;2.03;;
32333;SDS011;18810;53.040;8.850;2022-12-07T15:12:57;3.65;;;1.88;;
32333;SDS011;18810;53.040;8.850;2022-12-07T15:15:42;5.80;;;2.25;;
32333;SDS011;18810;53.040;8.850;2022-12-07T15:18:08;2.58;;;1.77;;
32333;SDS011;18810;53.040;8.850;2022-12-07T15:20:33;8.07;;;2.33;;
32333;SDS011;18810;53.040;8.850;2022-12-07T15:22:59;6.10;;;2.13;;
32333;SDS011;18810;53.040;8.850;2022-12-07T15:25:25;4.68;;;2.47;;
32333;SDS011;18810;53.040;8.850;2022-12-07T15:27:54;5.28;;;2.40;;
32333;SDS011;18810;53.040;8.850;2022-12-07T15:30:19;4.63;;;2.20;;
32333;SDS011;18810;53.040;8.850;2022-12-07T15:32:48;6.57;;;2.15;;
32333;SDS011;18810;53.040;8.850;2022-12-07T15:35:15;4.25;;;2.45;;
32333;SDS011;18810;53.040;8.850;2022-12-07T15:37:40;5.40;;;2.40;;
32333;SDS011;18810;53.040;8.850;2022-12-07T15:40:06;3.10;;;1.83;;
32333;SDS011;18810;53.040;8.850;2022-12-07T15:42:33;5.25;;;2.58;;
32333;SDS011;18810;53.040;8.850;2022-12-07T15:44:59;5.57;;;1.98;;
32333;SDS011;18810;53.040;8.850;2022-12-07T15:47:35;5.07;;;1.92;;
32333;SDS011;18810;53.040;8.850;2022-12-07T15:50:04;5.05;;;2.15;;
32333;SDS011;18810;53.040;8.850;2022-12-07T15:52:36;4.30;;;1.77;;
32333;SDS011;18810;53.040;8.850;2022-12-07T15:55:02;5.47;;;1.95;;
32333;SDS011;18810;53.040;8.850;2022-12-07T15:57:29;5.25;;;1.90;;
32333;SDS011;18810;53.040;8.850;2022-12-07T15:59:55;4.40;;;1.85;;
32333;SDS011;18810;53.040;8.850;2022-12-07T16:02:21;4.50;;;1.80;;
32333;SDS011;18810;53.040;8.850;2022-12-07T16:04:47;3.95;;;1.80;;
32333;SDS011;18810;53.040;8.850;2022-12-07T16:07:13;5.45;;;2.20;;
32333;SDS011;18810;53.040;8.850;2022-12-07T16:09:41;3.08;;;1.95;;
32333;SDS011;18810;53.040;8.850;2022-12-07T16:12:07;5.38;;;1.92;;
32333;SDS011;18810;53.040;8.850;2022-12-07T16:14:33;8.52;;;2.22;;
32333;SDS011;18810;53.040;8.850;2022-12-07T16:16:59;8.25;;;2.00;;
32333;SDS011;18810;53.040;8.850;2022-12-07T16:19:24;5.25;;;1.83;;
32333;SDS011;18810;53.040;8.850;2022-12-07T16:21:50;7.10;;;2.28;;
32333;SDS011;18810;53.040;8.850;2022-12-07T16:24:16;6.03;;;1.80;;
32333;SDS011;18810;53.040;8.850;2022-12-07T16:26:42;8.10;;;2.42;;
32333;SDS011;18810;53.040;8.850;2022-12-07T16:29:12;5.40;;;1.83;;
32333;SDS011;18810;53.040;8.850;2022-12-07T16:31:38;3.38;;;1.95;;
32333;SDS011;18810;53.040;8.850;2022-12-07T16:34:04;5.00;;;2.40;;
32333;SDS011;18810;53.040;8.850;2022-12-07T16:36:30;5.07;;;2.25;;
32333;SDS011;18810;53.040;8.850;2022-12-07T16:38:57;7.88;;;2.83;;
32333;SDS011;18810;53.040;8.850;2022-12-07T16:41:24;4.57;;;3.08;;
32333;SDS011;18810;53.040;8.850;2022-12-07T16:43:49;10.77;;;3.88;;
32333;SDS011;18810;53.040;8.850;2022-12-07T16:46:15;8.57;;;3.70;;
32333;SDS011;18810;53.040;8.850;2022-12-07T16:48:41;7.63;;;3.47;;
32333;SDS011;18810;53.040;8.850;2022-12-07T16:51:08;13.15;;;3.60;;
32333;SDS011;18810;53.040;8.850;2022-12-07T16:53:35;6.05;;;3.33;;
32333;SDS011;18810;53.040;8.850;2022-12-07T16:56:01;8.07;;;3.45;;
32333;SDS011;18810;53.040;8.850;2022-12-07T16:58:28;8.77;;;3.92;;
32333;SDS011;18810;53.040;8.850;2022-12-07T17:00:54;8.75;;;4.07;;
32333;SDS011;18810;53.040;8.850;2022-12-07T17:03:20;10.82;;;4.40;;
32333;SDS011;18810;53.040;8.850;2022-12-07T17:05:46;8.82;;;4.57;;
32333;SDS011;18810;53.040;8.850;2022-12-07T17:08:12;10.60;;;4.57;;
32333;SDS011;18810;53.040;8.850;2022-12-07T17:10:39;8.00;;;5.30;;
32333;SDS011;18810;53.040;8.850;2022-12-07T17:13:07;10.43;;;5.10;;
32333;SDS011;18810;53.040;8.850;2022-12-07T17:15:56;10.60;;;5.35;;
32333;SDS011;18810;53.040;8.850;2022-12-07T17:18:23;9.00;;;4.57;;
32333;SDS011;18810;53.040;8.850;2022-12-07T17:20:51;8.55;;;4.90;;
32333;SDS011;18810;53.040;8.850;2022-12-07T17:23:16;9.23;;;5.25;;
32333;SDS011;18810;53.040;8.850;2022-12-07T17:25:42;9.13;;;5.28;;
32333;SDS011;18810;53.040;8.850;2022-12-07T17:28:08;11.00;;;5.18;;